Time;durP1;ratioP1;P1;durP2;ratioP2;P2;SDS_P1;SDS_P2;PMS_P1;PMS_P2;Temp;Humidity;BMP_temperature;BMP_pressure;BME280_temperature;BME280_humidity;BME280_pressure;Samples;Min_cycle;Max_cycle;Signal;HPM_P1;HPM_P2
2021/06/19 00:01:54;;;;;;;8.73;6.07;;;27.10;99.90;;;;;;5058540;28;20552;-85
2021/06/19 00:04:19;;;;;;;6.15;5.32;;;27.10;99.90;;;;;;5042172;28;20112;-85
2021/06/19 00:06:45;;;;;;;6.63;5.93;;;27.10;99.90;;;;;;5041846;28;20028;-85
2021/06/19 00:09:11;;;;;;;7.72;5.80;;;27.10;99.90;;;;;;5042234;28;20466;-85
2021/06/19 00:11:36;;;;;;;6.53;5.78;;;27.10;99.90;;;;;;5075306;28;20047;-85
2021/06/19 00:14:02;;;;;;;6.95;5.63;;;27.10;99.90;;;;;;5058472;28;20036;-85
2021/06/19 00:16:28;;;;;;;6.57;5.93;;;27.10;99.90;;;;;;5074786;28;20040;-86
2021/06/19 00:18:53;;;;;;;7.70;6.22;;;27.10;99.90;;;;;;5058672;28;20118;-84
2021/06/19 00:21:19;;;;;;;6.97;5.85;;;27.10;99.90;;;;;;5038535;28;20084;-85
2021/06/19 00:23:44;;;;;;;7.10;6.00;;;27.10;99.90;;;;;;5054818;28;20038;-84
2021/06/19 00:26:11;;;;;;;6.18;5.55;;;27.10;99.90;;;;;;5055132;28;20459;-84
2021/06/19 00:28:36;;;;;;;8.18;6.45;;;27.10;99.90;;;;;;5071454;28;20025;-85
2021/06/19 00:31:03;;;;;;;7.00;5.65;;;27.10;99.90;;;;;;5038095;28;20422;-85
2021/06/19 00:33:29;;;;;;;7.50;6.30;;;27.10;99.90;;;;;;5071232;28;20033;-85
2021/06/19 00:35:54;;;;;;;7.32;6.43;;;27.10;99.90;;;;;;5071682;28;20035;-85
2021/06/19 00:38:20;;;;;;;7.40;6.20;;;27.10;99.90;;;;;;5071742;28;20055;-85
2021/06/19 00:40:46;;;;;;;7.00;5.90;;;27.10;99.90;;;;;;5054676;28;20483;-85
2021/06/19 00:43:11;;;;;;;8.38;6.88;;;27.10;99.90;;;;;;5054629;28;20052;-84
2021/06/19 00:45:38;;;;;;;6.80;6.07;;;27.10;99.90;;;;;;5054773;28;20032;-84
2021/06/19 00:48:11;;;;;;;8.10;6.60;;;27.10;99.90;;;;;;5038564;28;20036;-85
2021/06/19 00:50:38;;;;;;;7.85;6.70;;;27.10;99.90;;;;;;5038001;28;20037;-85
2021/06/19 00:53:04;;;;;;;8.52;6.70;;;27.00;99.90;;;;;;5071724;28;20360;-85
2021/06/19 00:55:30;;;;;;;7.10;6.38;;;27.10;99.90;;;;;;5072999;28;20043;-84
2021/06/19 00:58:01;;;;;;;7.20;6.43;;;27.10;99.90;;;;;;5054782;28;20032;-84
2021/06/19 01:00:27;;;;;;;6.55;5.93;;;27.00;99.90;;;;;;5071844;28;20490;-85
2021/06/19 01:02:55;;;;;;;7.10;6.38;;;27.00;99.90;;;;;;5071569;28;20032;-84
2021/06/19 01:05:20;;;;;;;7.85;6.00;;;27.10;99.90;;;;;;5071946;28;20029;-85
2021/06/19 01:07:46;;;;;;;6.90;6.20;;;27.00;99.90;;;;;;5071545;28;20037;-84
2021/06/19 01:10:12;;;;;;;7.78;6.03;;;27.00;99.90;;;;;;5071657;28;20025;-84
2021/06/19 01:12:41;;;;;;;8.57;6.47;;;27.00;99.90;;;;;;5071339;28;20064;-85
2021/06/19 01:15:07;;;;;;;7.50;5.57;;;27.00;99.90;;;;;;5072855;28;20029;-85
2021/06/19 01:17:33;;;;;;;6.90;6.20;;;27.00;99.90;;;;;;5071532;28;20041;-86
2021/06/19 01:20:04;;;;;;;6.50;5.88;;;27.00;99.90;;;;;;5071245;28;20360;-85
2021/06/19 01:22:31;;;;;;;7.65;6.13;;;27.00;99.90;;;;;;5086566;28;20045;-85
2021/06/19 01:25:06;;;;;;;7.07;5.93;;;27.00;99.90;;;;;;5057806;28;20024;-85
2021/06/19 01:27:33;;;;;;;6.82;6.10;;;27.10;99.90;;;;;;5058228;28;20032;-84
2021/06/19 01:29:59;;;;;;;7.07;5.82;;;27.00;99.90;;;;;;5074167;28;20035;-85
2021/06/19 01:32:28;;;;;;;7.90;6.50;;;27.00;99.90;;;;;;5057803;28;20036;-84
2021/06/19 01:34:54;;;;;;;7.00;5.70;;;27.00;99.90;;;;;;5074500;28;20032;-85
2021/06/19 01:37:20;;;;;;;6.68;5.85;;;27.00;99.90;;;;;;5092596;28;20071;-84
2021/06/19 01:39:45;;;;;;;7.30;6.25;;;27.00;99.90;;;;;;5092264;28;20461;-85
2021/06/19 01:42:11;;;;;;;7.00;5.72;;;27.00;99.90;;;;;;5057709;28;20053;-84
2021/06/19 01:44:37;;;;;;;7.45;6.25;;;26.90;99.90;;;;;;5060822;28;20088;-85
2021/06/19 01:47:02;;;;;;;7.10;6.30;;;26.90;99.90;;;;;;5061311;28;20035;-84
2021/06/19 01:49:35;;;;;;;6.38;5.63;;;26.90;99.90;;;;;;5044728;28;20163;-84
2021/06/19 01:52:03;;;;;;;7.22;6.53;;;26.90;99.90;;;;;;5077516;28;20085;-84
2021/06/19 01:54:38;;;;;;;7.78;6.97;;;26.90;99.90;;;;;;5077145;28;20030;-84
2021/06/19 01:57:07;;;;;;;6.80;6.10;;;26.90;99.90;;;;;;5062438;28;20024;-84
2021/06/19 01:59:34;;;;;;;7.13;6.28;;;26.90;99.90;;;;;;5077830;28;20028;-84
2021/06/19 02:02:00;;;;;;;7.10;6.40;;;26.90;99.90;;;;;;5060914;28;20032;-84
2021/06/19 02:04:26;;;;;;;6.75;6.05;;;26.90;99.90;;;;;;5077800;28;20024;-84
2021/06/19 02:06:53;;;;;;;6.95;6.13;;;26.90;99.90;;;;;;5077407;28;20026;-84
2021/06/19 02:09:19;;;;;;;7.82;6.10;;;26.90;99.90;;;;;;5044442;28;20028;-84
2021/06/19 02:11:44;;;;;;;7.50;6.18;;;26.80;99.90;;;;;;5077372;28;20036;-84
2021/06/19 02:14:13;;;;;;;8.05;6.47;;;26.80;99.90;;;;;;5060733;28;20029;-83
2021/06/19 02:16:39;;;;;;;6.75;6.05;;;26.80;99.90;;;;;;5060783;28;20106;-85
2021/06/19 02:19:05;;;;;;;8.40;6.70;;;26.80;99.90;;;;;;5095751;28;20024;-84
2021/06/19 02:21:31;;;;;;;7.15;6.45;;;26.80;99.90;;;;;;5060370;28;20052;-84
2021/06/19 02:23:57;;;;;;;7.68;6.00;;;26.80;99.90;;;;;;5077147;28;20024;-84
2021/06/19 02:26:22;;;;;;;6.78;6.07;;;26.80;99.90;;;;;;5095596;28;20085;-84
2021/06/19 02:28:48;;;;;;;7.57;6.65;;;26.80;99.90;;;;;;5043711;28;20040;-84
2021/06/19 02:31:14;;;;;;;7.32;6.53;;;26.80;99.90;;;;;;5043837;28;20443;-84
2021/06/19 02:33:40;;;;;;;6.47;5.88;;;26.80;99.90;;;;;;5076803;28;20374;-85
2021/06/19 02:36:06;;;;;;;7.28;6.18;;;26.80;99.90;;;;;;5077213;28;20032;-84
2021/06/19 02:38:31;;;;;;;7.20;6.40;;;26.80;99.90;;;;;;5095324;28;20532;-84
2021/06/19 02:40:57;;;;;;;8.20;6.60;;;26.80;99.90;;;;;;5077451;28;20040;-84
2021/06/19 02:43:23;;;;;;;9.20;6.63;;;26.80;99.90;;;;;;5076786;28;20115;-84
2021/06/19 02:45:49;;;;;;;6.47;5.78;;;26.80;99.90;;;;;;5060140;28;20032;-84
2021/06/19 02:48:15;;;;;;;7.18;6.45;;;26.70;99.90;;;;;;5059926;28;20542;-84
2021/06/19 02:50:43;;;;;;;7.28;6.15;;;26.70;99.90;;;;;;5076481;28;20040;-86
2021/06/19 02:53:09;;;;;;;8.18;6.53;;;26.70;99.90;;;;;;5076830;28;20028;-83
2021/06/19 02:55:36;;;;;;;6.75;6.05;;;26.70;99.90;;;;;;5075924;28;20107;-83
2021/06/19 02:58:04;;;;;;;6.30;5.70;;;26.70;99.90;;;;;;5076424;28;20185;-83
2021/06/19 03:00:30;;;;;;;6.93;5.93;;;26.70;99.90;;;;;;5094859;28;20016;-83
2021/06/19 03:02:56;;;;;;;7.47;6.35;;;26.70;99.90;;;;;;5076158;28;20072;-83
2021/06/19 03:05:24;;;;;;;7.93;6.75;;;26.70;99.90;;;;;;5060030;28;20032;-83
2021/06/19 03:07:52;;;;;;;8.77;6.70;;;26.70;99.90;;;;;;5094124;28;20020;-83
2021/06/19 03:10:20;;;;;;;7.78;6.60;;;26.70;99.90;;;;;;5076411;28;20028;-83
2021/06/19 03:12:46;;;;;;;8.43;6.97;;;26.70;99.90;;;;;;5094326;28;20052;-85
2021/06/19 03:15:12;;;;;;;6.95;5.93;;;26.70;99.90;;;;;;5043465;28;20101;-85
2021/06/19 03:17:38;;;;;;;7.68;6.28;;;26.70;99.90;;;;;;5094599;28;20036;-85
2021/06/19 03:20:06;;;;;;;8.73;6.70;;;26.70;99.90;;;;;;5076003;28;20031;-85
2021/06/19 03:22:48;;;;;;;8.25;6.65;;;26.70;99.90;;;;;;5076138;28;20052;-84
2021/06/19 03:25:19;;;;;;;7.10;6.40;;;26.70;99.90;;;;;;5076392;28;20028;-85
2021/06/19 03:27:45;;;;;;;6.68;5.97;;;26.70;99.90;;;;;;5076047;28;20032;-86
2021/06/19 03:30:12;;;;;;;7.25;6.15;;;26.70;99.90;;;;;;5043028;28;20063;-85
2021/06/19 03:32:38;;;;;;;7.53;6.28;;;26.70;99.90;;;;;;5076142;28;20186;-85
2021/06/19 03:35:05;;;;;;;7.18;6.30;;;26.70;99.90;;;;;;5075692;28;20059;-85
2021/06/19 03:37:31;;;;;;;7.65;6.05;;;26.60;99.90;;;;;;5094033;28;20028;-85
2021/06/19 03:39:57;;;;;;;7.00;5.82;;;26.60;99.90;;;;;;5075651;28;20035;-85
2021/06/19 03:42:22;;;;;;;6.20;5.57;;;26.60;99.90;;;;;;5075979;28;20060;-84
2021/06/19 03:44:48;;;;;;;5.95;5.35;;;26.60;99.90;;;;;;5059075;28;20092;-85
2021/06/19 03:47:14;;;;;;;6.18;5.57;;;26.60;99.90;;;;;;5075743;28;20028;-85
2021/06/19 03:49:39;;;;;;;5.90;5.30;;;26.60;99.90;;;;;;5076201;28;20034;-85
2021/06/19 03:52:05;;;;;;;5.40;4.82;;;26.60;99.90;;;;;;5058556;28;20040;-85
2021/06/19 03:54:31;;;;;;;6.07;5.30;;;26.60;99.90;;;;;;5075857;28;20024;-83
2021/06/19 03:56:56;;;;;;;6.05;5.00;;;26.60;99.90;;;;;;5058836;28;20382;-85
2021/06/19 03:59:22;;;;;;;5.15;4.65;;;26.60;99.90;;;;;;5042562;28;20035;-84
2021/06/19 04:01:48;;;;;;;5.05;4.55;;;26.60;99.90;;;;;;5058831;28;20174;-85
2021/06/19 04:04:13;;;;;;;4.32;3.92;;;26.60;99.90;;;;;;5075572;28;20474;-84
2021/06/19 04:06:39;;;;;;;5.00;4.53;;;26.60;99.90;;;;;;5075782;28;20493;-84
2021/06/19 04:09:05;;;;;;;4.78;4.32;;;26.60;99.90;;;;;;5041893;28;20032;-84
2021/06/19 04:11:30;;;;;;;4.40;4.00;;;26.60;99.90;;;;;;5093239;28;20424;-84
2021/06/19 04:13:56;;;;;;;5.20;4.65;;;26.60;99.90;;;;;;5041946;28;20051;-84
2021/06/19 04:16:21;;;;;;;4.35;3.95;;;26.60;99.90;;;;;;5075277;28;20114;-84
2021/06/19 04:18:47;;;;;;;4.80;4.30;;;26.60;99.90;;;;;;5042341;28;20032;-84
2021/06/19 04:21:13;;;;;;;5.43;4.15;;;26.60;99.90;;;;;;5092784;28;20106;-84
2021/06/19 04:23:38;;;;;;;4.40;3.92;;;26.60;99.90;;;;;;5058852;28;20466;-84
2021/06/19 04:26:04;;;;;;;4.05;3.67;;;26.60;99.90;;;;;;5074899;28;20032;-84
2021/06/19 04:28:30;;;;;;;5.95;3.92;;;26.60;99.90;;;;;;5093356;28;20062;-84
2021/06/19 04:30:59;;;;;;;4.78;4.30;;;26.60;99.90;;;;;;5058159;28;20059;-84
2021/06/19 04:33:26;;;;;;;4.35;3.95;;;26.50;99.90;;;;;;5058962;28;20382;-84
2021/06/19 04:35:53;;;;;;;4.32;3.85;;;26.60;99.90;;;;;;5075285;28;20048;-84
2021/06/19 04:38:18;;;;;;;5.63;4.25;;;26.60;99.90;;;;;;5060106;28;20039;-83
2021/06/19 04:41:29;;;;;;;4.18;3.78;;;26.50;99.80;;;;;;5093482;28;20036;-84
2021/06/19 04:43:51;;;;;;;4.00;3.60;;;26.50;99.80;;;;;;5067679;28;20032;-84
2021/06/19 04:46:17;;;;;;;6.85;4.57;;;26.50;99.80;;;;;;5047226;28;20537;-84
2021/06/19 04:48:43;;;;;;;4.95;4.45;;;26.50;99.70;;;;;;5075066;28;20106;-84
2021/06/19 04:51:08;;;;;;;4.97;4.07;;;26.50;99.70;;;;;;5074618;28;20044;-84
2021/06/19 04:53:34;;;;;;;4.47;3.97;;;26.50;99.70;;;;;;5092792;28;20040;-83
2021/06/19 04:56:03;;;;;;;7.03;4.38;;;26.50;99.70;;;;;;5074437;28;20488;-83
2021/06/19 04:58:29;;;;;;;4.80;3.97;;;26.50;99.70;;;;;;5092875;28;20478;-84
2021/06/19 05:00:55;;;;;;;4.70;4.20;;;26.50;99.60;;;;;;5074475;28;20046;-84
2021/06/19 05:03:22;;;;;;;5.75;4.25;;;26.50;99.60;;;;;;5075005;28;20060;-84
2021/06/19 05:05:50;;;;;;;4.70;3.95;;;26.50;99.60;;;;;;5092664;28;20484;-84
2021/06/19 05:08:15;;;;;;;4.85;4.00;;;26.50;99.60;;;;;;5074560;28;20126;-84
2021/06/19 05:10:41;;;;;;;5.47;4.47;;;26.50;99.60;;;;;;5074462;28;20124;-84
2021/06/19 05:13:07;;;;;;;5.15;4.45;;;26.50;99.60;;;;;;5057838;28;20113;-84
2021/06/19 05:15:32;;;;;;;5.30;4.35;;;26.50;99.60;;;;;;5058210;28;20103;-84
2021/06/19 05:17:58;;;;;;;4.90;4.40;;;26.50;99.60;;;;;;5074891;28;20465;-83
2021/06/19 05:20:29;;;;;;;5.00;3.90;;;26.50;99.50;;;;;;5061244;28;20368;-84
2021/06/19 05:22:59;;;;;;;4.72;3.85;;;26.50;99.50;;;;;;5096322;28;20062;-85
2021/06/19 05:25:26;;;;;;;4.70;4.10;;;26.50;99.40;;;;;;5097064;28;20111;-85
2021/06/19 05:27:52;;;;;;;3.92;3.50;;;26.50;99.40;;;;;;5096734;28;20095;-85
2021/06/19 05:30:18;;;;;;;5.10;4.22;;;26.50;99.40;;;;;;5061364;28;20127;-85
2021/06/19 05:32:44;;;;;;;4.13;3.50;;;26.50;99.40;;;;;;5061900;28;20051;-85
2021/06/19 05:35:11;;;;;;;3.83;3.28;;;26.50;99.40;;;;;;5096255;28;20110;-85
2021/06/19 05:37:37;;;;;;;5.28;3.45;;;26.50;99.40;;;;;;5078358;28;20028;-85
2021/06/19 05:40:05;;;;;;;3.80;3.38;;;26.40;99.40;;;;;;5044858;28;20077;-85
2021/06/19 05:42:30;;;;;;;4.38;3.28;;;26.40;99.40;;;;;;5078132;28;20034;-85
2021/06/19 05:44:56;;;;;;;3.40;3.10;;;26.40;99.40;;;;;;5078189;28;20032;-86
2021/06/19 05:47:22;;;;;;;3.35;3.05;;;26.40;99.40;;;;;;5061339;28;20119;-83
2021/06/19 05:49:47;;;;;;;4.05;3.28;;;26.40;99.40;;;;;;5061241;28;20028;-85
2021/06/19 05:52:13;;;;;;;3.95;3.20;;;26.40;99.40;;;;;;5077961;28;20036;-86
2021/06/19 05:54:39;;;;;;;4.22;3.17;;;26.50;99.40;;;;;;5061517;28;20381;-86
2021/06/19 05:57:05;;;;;;;3.28;2.97;;;26.50;99.30;;;;;;5061266;28;20032;-86
2021/06/19 05:59:31;;;;;;;3.22;2.80;;;26.50;99.30;;;;;;5096165;28;20021;-86
2021/06/19 06:01:57;;;;;;;4.75;3.35;;;26.50;99.30;;;;;;5045167;28;20039;-86
2021/06/19 06:04:23;;;;;;;3.13;2.75;;;26.50;99.30;;;;;;5061736;28;20035;-86
2021/06/19 06:06:48;;;;;;;3.42;2.97;;;26.50;99.60;;;;;;5061520;28;20032;-86
2021/06/19 06:09:14;;;;;;;4.45;3.10;;;26.50;99.90;;;;;;5060677;28;20074;-86
2021/06/19 06:11:40;;;;;;;4.15;2.95;;;26.50;99.90;;;;;;5077852;28;20044;-86
2021/06/19 06:14:08;;;;;;;3.25;2.80;;;26.50;99.90;;;;;;5061338;28;20028;-86
2021/06/19 06:16:34;;;;;;;4.15;3.75;;;26.50;99.90;;;;;;5096076;28;20024;-85
2021/06/19 06:19:00;;;;;;;3.60;3.20;;;26.50;99.80;;;;;;5077472;28;20027;-86
2021/06/19 06:21:26;;;;;;;3.47;3.15;;;26.50;99.70;;;;;;5060711;28;20389;-85
2021/06/19 06:23:52;;;;;;;3.53;3.22;;;26.40;99.70;;;;;;5077626;28;20529;-85
2021/06/19 06:26:17;;;;;;;4.60;3.65;;;26.50;99.80;;;;;;5044123;28;20089;-85
2021/06/19 06:28:43;;;;;;;4.18;3.78;;;26.50;99.90;;;;;;5077421;28;20036;-85
2021/06/19 06:31:09;;;;;;;4.70;4.20;;;26.50;99.90;;;;;;5042899;28;20032;-85
2021/06/19 06:33:34;;;;;;;6.38;5.53;;;26.50;99.90;;;;;;5044127;28;20032;-85
2021/06/19 06:36:00;;;;;;;6.60;5.72;;;26.50;99.90;;;;;;5095559;28;20043;-85
2021/06/19 06:38:26;;;;;;;7.70;5.80;;;26.40;99.90;;;;;;5077175;28;20088;-85
2021/06/19 06:40:51;;;;;;;6.70;6.00;;;26.40;99.90;;;;;;5060721;28;20036;-84
2021/06/19 06:43:18;;;;;;;7.05;6.30;;;26.40;99.90;;;;;;5043814;28;20118;-84
2021/06/19 06:45:44;;;;;;;7.70;6.55;;;26.40;99.80;;;;;;5060106;28;20082;-83
2021/06/19 06:48:09;;;;;;;7.07;6.07;;;26.40;99.80;;;;;;5076830;28;20063;-84
2021/06/19 06:50:35;;;;;;;7.88;6.35;;;26.40;99.70;;;;;;5060494;28;20063;-85
2021/06/19 06:53:01;;;;;;;6.03;5.43;;;26.40;99.70;;;;;;5043195;28;20485;-84
2021/06/19 06:55:27;;;;;;;7.38;6.00;;;26.40;99.60;;;;;;5059693;28;20032;-85
2021/06/19 06:57:52;;;;;;;5.93;5.32;;;26.40;99.60;;;;;;5094138;28;20104;-85
2021/06/19 07:00:19;;;;;;;4.57;4.18;;;26.40;99.50;;;;;;5042699;28;20032;-85
2021/06/19 07:02:44;;;;;;;5.10;4.22;;;26.40;99.40;;;;;;5060069;28;20481;-84
2021/06/19 07:05:11;;;;;;;5.47;4.15;;;26.40;99.40;;;;;;5059655;28;20024;-85
2021/06/19 07:07:37;;;;;;;4.75;3.60;;;26.40;99.30;;;;;;5076525;28;20119;-84
2021/06/19 07:10:05;;;;;;;3.55;3.25;;;26.40;99.20;;;;;;5060194;28;20024;-84
2021/06/19 07:12:31;;;;;;;3.50;2.92;;;26.30;99.10;;;;;;5076571;28;20040;-84
2021/06/19 07:14:57;;;;;;;3.45;2.92;;;26.30;98.90;;;;;;5094989;28;20381;-84
2021/06/19 07:17:22;;;;;;;4.40;2.90;;;26.30;98.80;;;;;;5076155;28;20024;-84
2021/06/19 07:19:48;;;;;;;3.67;2.60;;;26.30;98.70;;;;;;5076538;28;20029;-84
2021/06/19 07:22:13;;;;;;;2.63;2.42;;;26.30;98.60;;;;;;5075741;28;20048;-84
2021/06/19 07:24:39;;;;;;;2.45;2.13;;;26.30;98.60;;;;;;5059772;28;20032;-84
2021/06/19 07:27:06;;;;;;;2.33;2.00;;;26.30;98.50;;;;;;5043236;28;20466;-85
2021/06/19 07:29:31;;;;;;;2.55;2.17;;;26.30;98.40;;;;;;5093947;28;20385;-85
2021/06/19 07:31:57;;;;;;;2.63;2.17;;;26.30;98.30;;;;;;5076069;28;20032;-85
2021/06/19 07:34:23;;;;;;;3.78;1.90;;;26.30;98.30;;;;;;5094356;28;20024;-85
2021/06/19 07:36:48;;;;;;;3.75;1.80;;;26.30;98.20;;;;;;5076037;28;20035;-85
2021/06/19 07:39:15;;;;;;;2.20;1.65;;;26.30;98.20;;;;;;5075852;28;20043;-85
2021/06/19 07:41:41;;;;;;;2.15;1.63;;;26.30;98.10;;;;;;5094651;28;20477;-84
2021/06/19 07:44:07;;;;;;;1.55;1.30;;;26.20;98.00;;;;;;5060050;28;20032;-87
2021/06/19 07:46:32;;;;;;;3.33;1.67;;;26.20;97.90;;;;;;5076077;28;20111;-84
2021/06/19 07:48:58;;;;;;;2.17;1.25;;;26.20;97.80;;;;;;5076135;28;20032;-85
2021/06/19 07:51:24;;;;;;;1.60;1.45;;;26.20;97.80;;;;;;5058572;28;20040;-85
2021/06/19 07:53:49;;;;;;;1.75;1.55;;;26.20;97.70;;;;;;5042661;28;20127;-85
2021/06/19 07:56:15;;;;;;;1.75;1.50;;;26.20;97.60;;;;;;5075134;28;20509;-85
2021/06/19 07:58:40;;;;;;;3.60;1.60;;;26.20;97.60;;;;;;5075781;28;20038;-85
2021/06/19 08:01:06;;;;;;;2.15;1.30;;;26.20;97.50;;;;;;5042310;28;20032;-85
2021/06/19 08:03:32;;;;;;;2.17;1.33;;;26.20;97.50;;;;;;5075309;28;20028;-85
2021/06/19 08:05:57;;;;;;;2.75;1.50;;;26.10;97.40;;;;;;5042290;28;20419;-85
2021/06/19 08:08:23;;;;;;;1.75;1.27;;;26.20;97.40;;;;;;5093256;28;20375;-85
2021/06/19 08:10:51;;;;;;;2.00;1.10;;;26.10;97.30;;;;;;5075136;28;20036;-84
2021/06/19 08:13:16;;;;;;;2.90;1.70;;;26.10;97.30;;;;;;5059048;28;20553;-84
2021/06/19 08:15:42;;;;;;;1.95;1.38;;;26.10;97.20;;;;;;5093552;28;20078;-85
2021/06/19 08:18:08;;;;;;;2.38;1.08;;;26.10;97.20;;;;;;5042552;28;20062;-84
2021/06/19 08:20:34;;;;;;;1.50;1.23;;;26.10;97.10;;;;;;5042036;28;20384;-85
2021/06/19 08:23:00;;;;;;;1.70;1.38;;;26.10;97.10;;;;;;5041953;28;20125;-85
2021/06/19 08:25:26;;;;;;;2.22;1.30;;;26.10;97.00;;;;;;5058426;28;20115;-85
2021/06/19 08:27:51;;;;;;;2.45;1.20;;;26.10;97.00;;;;;;5093495;28;20081;-85
2021/06/19 08:30:17;;;;;;;1.60;0.90;;;26.10;97.00;;;;;;5058168;28;20157;-85
2021/06/19 08:32:43;;;;;;;1.48;1.00;;;26.10;97.00;;;;;;5075242;28;20040;-84
2021/06/19 08:35:10;;;;;;;2.13;1.15;;;26.10;96.90;;;;;;5058503;28;20039;-85
2021/06/19 08:37:36;;;;;;;2.25;1.08;;;26.10;96.90;;;;;;5093316;28;20024;-84
2021/06/19 08:40:03;;;;;;;2.40;1.30;;;26.10;96.80;;;;;;5074949;28;20028;-84
2021/06/19 08:42:28;;;;;;;1.60;0.90;;;26.10;96.80;;;;;;5074726;28;20486;-85
2021/06/19 08:44:57;;;;;;;2.40;1.00;;;26.10;96.70;;;;;;5075146;28;20035;-85
2021/06/19 08:47:24;;;;;;;1.10;0.80;;;26.10;96.70;;;;;;5074717;28;20035;-85
2021/06/19 08:49:51;;;;;;;0.80;0.80;;;26.10;96.60;;;;;;5093117;28;20024;-85
2021/06/19 08:52:17;;;;;;;0.70;0.70;;;26.10;96.60;;;;;;5074914;28;20060;-85
2021/06/19 08:54:43;;;;;;;1.20;0.82;;;26.10;96.50;;;;;;5079157;28;20058;-85
2021/06/19 08:57:11;;;;;;;1.30;0.88;;;26.10;96.50;;;;;;5062402;28;20028;-85
2021/06/19 08:59:38;;;;;;;1.13;0.80;;;26.10;96.40;;;;;;5078887;28;20032;-84
2021/06/19 09:02:06;;;;;;;0.95;0.70;;;26.10;96.40;;;;;;5062232;28;20382;-84
2021/06/19 09:05:04;;;;;;;1.05;0.90;;;26.10;96.30;;;;;;5078670;28;20027;-85
2021/06/19 09:07:50;;;;;;;1.55;1.00;;;26.10;96.20;;;;;;5078710;28;20028;-85
2021/06/19 09:10:25;;;;;;;0.52;0.52;;;26.00;96.10;;;;;;5078518;28;20377;-86
2021/06/19 09:13:02;;;;;;;0.63;0.57;;;26.00;96.10;;;;;;5096907;28;20031;-85
2021/06/19 09:15:30;;;;;;;0.93;0.77;;;26.00;96.00;;;;;;5078544;28;20062;-84
2021/06/19 09:18:08;;;;;;;0.73;0.70;;;26.00;96.00;;;;;;5096851;28;20024;-85
2021/06/19 09:20:41;;;;;;;1.15;0.90;;;26.00;96.00;;;;;;5096627;28;20035;-84
2021/06/19 09:23:10;;;;;;;0.73;0.65;;;26.00;95.90;;;;;;5085850;28;20044;-84
2021/06/19 09:25:36;;;;;;;0.60;0.60;;;26.00;95.90;;;;;;5082465;28;20033;-85
2021/06/19 09:28:05;;;;;;;1.30;0.65;;;26.00;95.90;;;;;;5075385;28;20032;-85
2021/06/19 09:30:31;;;;;;;0.85;0.70;;;26.00;95.80;;;;;;5076204;28;20052;-85
2021/06/19 09:32:59;;;;;;;0.70;0.70;;;26.00;95.80;;;;;;5041874;28;20063;-85
2021/06/19 09:35:40;;;;;;;1.25;0.70;;;26.00;95.70;;;;;;5074712;28;20024;-82
2021/06/19 09:38:11;;;;;;;0.98;0.75;;;26.00;95.70;;;;;;5058742;28;20032;-83
2021/06/19 09:40:42;;;;;;;0.93;0.60;;;26.00;95.70;;;;;;5074563;28;20094;-83
2021/06/19 09:43:15;;;;;;;1.13;0.80;;;26.00;95.70;;;;;;5076664;28;20036;-83
2021/06/19 09:46:03;;;;;;;0.65;0.65;;;26.00;95.70;;;;;;5074778;28;20029;-83
2021/06/19 09:48:33;;;;;;;0.70;0.70;;;26.00;95.70;;;;;;5075043;28;20037;-83
2021/06/19 09:51:19;;;;;;;0.98;0.80;;;26.00;95.80;;;;;;5075919;28;20441;-83
2021/06/19 09:54:06;;;;;;;1.05;0.73;;;26.00;95.80;;;;;;5075980;28;20032;-83
2021/06/19 09:57:01;;;;;;;1.05;0.73;;;26.00;95.80;;;;;;5074423;28;20052;-84
2021/06/19 09:59:33;;;;;;;1.00;0.75;;;26.00;95.70;;;;;;5053395;28;20125;-83
2021/06/19 10:02:01;;;;;;;0.75;0.75;;;26.00;95.80;;;;;;5074959;28;20071;-83
2021/06/19 10:04:28;;;;;;;1.20;0.73;;;26.00;95.80;;;;;;5074107;28;20036;-83
2021/06/19 10:06:56;;;;;;;0.75;0.70;;;26.00;95.70;;;;;;5058208;28;20033;-83
2021/06/19 10:09:22;;;;;;;1.75;0.60;;;26.00;95.70;;;;;;5057568;28;20056;-83
2021/06/19 10:11:53;;;;;;;1.50;0.95;;;26.00;95.70;;;;;;5057615;28;20048;-83
2021/06/19 10:14:21;;;;;;;1.00;0.70;;;26.00;95.70;;;;;;5074596;28;20036;-83
2021/06/19 10:16:50;;;;;;;0.82;0.82;;;26.00;95.70;;;;;;5074286;28;20561;-83
2021/06/19 10:19:18;;;;;;;1.80;0.82;;;26.00;95.60;;;;;;5074181;28;20476;-82
2021/06/19 10:21:45;;;;;;;1.10;0.80;;;26.00;95.70;;;;;;5073853;28;20055;-83
2021/06/19 10:24:11;;;;;;;1.20;0.75;;;26.00;95.70;;;;;;5057561;28;20052;-83
2021/06/19 10:26:38;;;;;;;0.68;0.68;;;26.00;95.60;;;;;;5073722;28;20425;-83
2021/06/19 10:29:05;;;;;;;0.90;0.77;;;26.00;95.60;;;;;;5057441;28;20028;-83
2021/06/19 10:31:45;;;;;;;1.40;0.70;;;26.00;95.60;;;;;;5073762;28;20037;-84
2021/06/19 10:34:26;;;;;;;1.45;0.90;;;26.00;95.60;;;;;;5074035;28;20024;-84
2021/06/19 10:37:03;;;;;;;1.00;0.80;;;26.00;95.60;;;;;;5070480;28;20386;-83
2021/06/19 10:39:45;;;;;;;1.08;0.98;;;26.00;95.60;;;;;;5073625;28;20040;-83
2021/06/19 10:42:16;;;;;;;0.77;0.70;;;26.00;95.60;;;;;;5057309;28;20037;-82
2021/06/19 10:44:55;;;;;;;2.03;1.00;;;26.00;95.60;;;;;;5074914;28;20083;-83
2021/06/19 10:47:23;;;;;;;0.65;0.65;;;26.10;95.60;;;;;;5073595;28;20116;-83
2021/06/19 10:49:51;;;;;;;0.65;0.65;;;26.00;95.50;;;;;;5074841;28;20025;-83
2021/06/19 10:52:28;;;;;;;0.68;0.68;;;26.00;95.50;;;;;;5074852;28;20036;-83
2021/06/19 10:55:17;;;;;;;0.63;0.63;;;26.10;95.60;;;;;;5075163;28;20068;-83
2021/06/19 10:57:47;;;;;;;1.00;0.80;;;26.10;95.50;;;;;;5060123;28;20094;-83
2021/06/19 11:00:35;;;;;;;1.13;0.80;;;26.10;95.80;;;;;;5074544;28;20090;-83
2021/06/19 11:03:05;;;;;;;0.82;0.82;;;26.10;95.50;;;;;;5074917;28;20020;-83
2021/06/19 11:05:51;;;;;;;1.30;0.70;;;26.10;95.50;;;;;;5072895;28;20030;-84
2021/06/19 11:08:18;;;;;;;1.10;1.00;;;26.10;95.50;;;;;;5074115;28;20025;-83
2021/06/19 11:10:47;;;;;;;0.73;0.73;;;26.00;95.40;;;;;;5056321;28;20041;-83
2021/06/19 11:13:28;;;;;;;0.95;0.70;;;26.00;95.40;;;;;;5073062;28;20382;-83
2021/06/19 11:15:56;;;;;;;0.80;0.80;;;26.10;95.40;;;;;;5073642;28;20074;-84
2021/06/19 11:18:52;;;;;;;0.95;0.90;;;26.00;95.40;;;;;;5056473;28;20039;-83
2021/06/19 11:21:30;;;;;;;0.60;0.60;;;26.00;95.40;;;;;;5073007;28;20035;-83
2021/06/19 11:24:02;;;;;;;1.30;1.20;;;26.00;95.40;;;;;;5091605;28;20040;-84
2021/06/19 11:26:55;;;;;;;1.10;1.00;;;26.00;95.40;;;;;;5076297;28;20024;-85
2021/06/19 11:29:43;;;;;;;1.40;1.20;;;26.00;95.40;;;;;;5076134;28;20020;-83
2021/06/19 11:32:24;;;;;;;2.22;2.00;;;26.00;95.40;;;;;;5094177;28;20054;-84
2021/06/19 11:34:55;;;;;;;1.70;1.60;;;26.00;95.40;;;;;;5075804;28;20028;-84
2021/06/19 11:37:20;;;;;;;1.70;1.60;;;26.00;95.40;;;;;;5060068;28;20118;-84
2021/06/19 11:39:46;;;;;;;2.20;1.70;;;26.00;95.40;;;;;;5075762;28;20059;-84
2021/06/19 11:42:13;;;;;;;1.52;1.40;;;26.00;95.40;;;;;;5043022;28;20043;-83
2021/06/19 11:44:46;;;;;;;2.25;2.05;;;26.00;95.40;;;;;;5075658;28;20036;-83
2021/06/19 11:47:13;;;;;;;2.25;1.92;;;26.00;95.40;;;;;;5078300;28;20051;-83
2021/06/19 11:49:46;;;;;;;3.28;1.85;;;26.00;95.50;;;;;;5075729;28;20043;-83
2021/06/19 11:52:17;;;;;;;2.65;1.98;;;26.00;95.50;;;;;;5076077;28;20473;-84
2021/06/19 11:54:44;;;;;;;2.75;2.03;;;26.00;95.50;;;;;;5093724;28;20035;-84
2021/06/19 11:57:20;;;;;;;2.10;1.90;;;26.00;95.50;;;;;;5059467;28;20032;-83
2021/06/19 12:00:00;;;;;;;2.67;1.67;;;26.00;95.50;;;;;;5060028;28;20039;-84
2021/06/19 12:02:27;;;;;;;2.28;2.05;;;26.10;95.60;;;;;;5075477;28;20043;-83
2021/06/19 12:04:52;;;;;;;2.45;1.92;;;26.00;95.60;;;;;;5059017;28;20097;-84
2021/06/19 12:07:24;;;;;;;2.13;1.90;;;26.00;95.60;;;;;;5075762;28;20537;-83
2021/06/19 12:09:52;;;;;;;2.78;2.10;;;26.00;95.60;;;;;;5058386;28;20088;-84
2021/06/19 12:12:18;;;;;;;2.13;1.92;;;26.00;95.60;;;;;;5075718;28;20040;-83
2021/06/19 12:14:44;;;;;;;2.20;1.70;;;26.10;95.60;;;;;;5041797;28;20032;-83
2021/06/19 12:17:11;;;;;;;2.35;1.90;;;26.00;95.60;;;;;;5042182;28;20461;-84
2021/06/19 12:19:40;;;;;;;2.33;1.95;;;26.00;95.60;;;;;;5074714;28;20051;-85
2021/06/19 12:22:16;;;;;;;2.30;1.90;;;26.10;95.60;;;;;;5093071;28;20113;-84
2021/06/19 12:24:44;;;;;;;1.90;1.70;;;26.00;95.60;;;;;;5074878;28;20101;-85
2021/06/19 12:27:15;;;;;;;2.00;1.70;;;26.00;95.60;;;;;;5075252;28;20067;-83
2021/06/19 12:29:46;;;;;;;2.65;1.70;;;26.00;95.60;;;;;;5074998;28;20028;-84
2021/06/19 12:32:31;;;;;;;1.65;1.50;;;26.00;95.60;;;;;;5093189;28;20028;-83
2021/06/19 12:35:07;;;;;;;2.70;1.92;;;26.10;95.60;;;;;;5075014;28;20024;-84
2021/06/19 12:37:36;;;;;;;1.77;1.67;;;26.00;95.50;;;;;;5075109;28;20085;-84
2021/06/19 12:40:05;;;;;;;2.33;1.85;;;26.00;95.50;;;;;;5075746;28;20028;-84
2021/06/19 12:42:53;;;;;;;1.92;1.77;;;26.00;95.50;;;;;;5093202;28;20078;-84
2021/06/19 12:45:24;;;;;;;2.42;2.13;;;26.00;95.40;;;;;;5074979;28;20496;-84
2021/06/19 12:47:52;;;;;;;2.08;1.83;;;26.00;95.40;;;;;;5092651;28;20020;-85
2021/06/19 12:50:38;;;;;;;2.05;1.85;;;26.00;95.40;;;;;;5093405;28;20513;-85
2021/06/19 12:53:10;;;;;;;2.58;2.03;;;26.00;95.40;;;;;;5092102;28;20146;-83
2021/06/19 12:56:00;;;;;;;2.25;2.05;;;26.00;95.30;;;;;;5092770;28;20020;-85